Current | Forecast
Updated: 1:00 AM CEST on October 21, 2017
Observed at Budapest Ferihegy, Hungary
Temperature 6°C
Humidity 100%
Dew Point 6°C
Wind Variable at 4 km/h
Pressure 1018 hPa (Steady)
Conditions Mist
Visibility 3.0 kilometers
UV N/A
Clouds
Yesterday's Maximum 19°C
Yesterday's Minimum 4°C approx.
Yesterday's Heating Degree Days 12 approx.
Sunrise7:11 AM CEST
Sunset5:43 PM CEST
Moon Rise8:33 AM CEST
Moon Set6:59 PM CEST
Moon PhaseMoon Phase
New Moon
Raw METARMETAR LHBP 202300Z VRB02KT 3000 BR NSC 06/06 Q1018 NOSIG


Monday
. High: 62° F.
Tuesday
. High: 75° F.
Wednesday
. High: 78° F.
Thursday
. High: 80° F.
Friday
. High: 73° F.
Saturday
. High: 75° F.
Sunday
. High: 78° F.
Monday
. High: 73° F.

Units: English | Metric

Find the Weather for any City, State or Zipcode, or Country:

U.S. State List | Severe Weather | Tropical Storms | Ski Conditions
United States | Canada | Central America | South America | Asia | Europe | Australia | Africa | Islands

Weather Underground

© Copyright 2017
The Weather Company, LLC